Time;durP1;ratioP1;P1;durP2;ratioP2;P2;SDS_P1;SDS_P2;PMS_P1;PMS_P2;Temp;Humidity;BMP_temperature;BMP_pressure;BME280_temperature;BME280_humidity;BME280_pressure;Samples;Min_cycle;Max_cycle;Signal;HPM_P1;HPM_P2
2023/04/09 00:02:10;;;;;;;0.10;0.10;;;;;;;18.96;47.41;102735.66;5031076;28;20037;-68
2023/04/09 00:04:35;;;;;;;0.20;0.20;;;;;;;18.89;47.26;102727.59;5031619;28;20030;-68
2023/04/09 00:07:01;;;;;;;0.10;0.10;;;;;;;18.99;47.18;102730.56;5030845;28;20045;-68
2023/04/09 00:09:26;;;;;;;0.10;0.10;;;;;;;19.13;46.68;102729.28;5031145;28;20048;-69
2023/04/09 00:11:51;;;;;;;0.17;0.17;;;;;;;19.07;46.42;102732.13;5030740;28;20034;-67
2023/04/09 00:14:17;;;;;;;0.20;0.20;;;;;;;19.05;47.21;102729.63;5031016;28;20115;-68
2023/04/09 00:16:42;;;;;;;0.20;0.20;;;;;;;18.73;47.65;102727.47;5030790;28;20037;-68
2023/04/09 00:19:08;;;;;;;0.20;0.20;;;;;;;18.94;47.18;102732.34;5031411;28;20026;-68
2023/04/09 00:21:33;;;;;;;0.30;0.30;;;;;;;19.19;46.66;102732.97;5046053;28;20037;-69
2023/04/09 00:23:58;;;;;;;0.10;0.10;;;;;;;18.97;46.99;102732.72;5050706;28;20033;-67
2023/04/09 00:26:24;;;;;;;0.10;0.10;;;;;;;18.79;47.73;102721.88;5032397;28;20408;-67
2023/04/09 00:28:50;;;;;;;0.35;0.35;;;;;;;18.98;47.11;102723.47;5050611;28;20032;-67
2023/04/09 00:31:15;;;;;;;0.13;0.13;;;;;;;19.02;47.33;102724.66;5051445;28;20488;-67
2023/04/09 00:33:41;;;;;;;0.20;0.20;;;;;;;18.18;49.27;102715.88;5031876;28;20489;-68
2023/04/09 00:36:06;;;;;;;0.10;0.10;;;;;;;18.50;48.38;102714.59;5050917;28;20029;-67
2023/04/09 00:38:32;;;;;;;0.20;0.20;;;;;;;18.81;48.11;102714.31;5050611;28;20029;-67
2023/04/09 00:40:57;;;;;;;0.20;0.20;;;;;;;19.05;47.24;102707.84;5050521;28;20033;-68
2023/04/09 00:43:22;;;;;;;0.20;0.20;;;;;;;18.84;48.04;102702.97;5051142;28;20036;-67
2023/04/09 00:45:48;;;;;;;0.10;0.10;;;;;;;18.99;47.62;102706.06;5050603;28;20049;-68
2023/04/09 00:48:15;;;;;;;0.20;0.20;;;;;;;18.98;47.75;102704.41;5050649;28;20044;-67
2023/04/09 00:50:41;;;;;;;0.25;0.25;;;;;;;18.59;48.95;102706.94;5050623;28;20090;-69
2023/04/09 00:53:08;;;;;;;0.20;0.20;;;;;;;18.89;47.89;102702.22;5051120;28;20033;-68
2023/04/09 00:55:35;;;;;;;0.20;0.20;;;;;;;18.83;48.31;102703.22;5054640;28;20122;-67
2023/04/09 00:58:01;;;;;;;0.20;0.20;;;;;;;18.77;47.60;102706.88;5053954;28;20112;-67
2023/04/09 01:00:26;;;;;;;0.20;0.20;;;;;;;18.45;48.92;102700.03;5054171;28;20035;-66
2023/04/09 01:02:55;;;;;;;0.22;0.22;;;;;;;18.40;49.10;102703.41;5053848;28;20033;-67
2023/04/09 01:05:20;;;;;;;0.10;0.10;;;;;;;18.16;49.55;102699.75;5054149;28;20101;-70
2023/04/09 01:08:11;;;;;;;0.20;0.20;;;;;;;18.55;49.30;102700.28;5054015;28;20485;-67
2023/04/09 01:10:55;;;;;;;0.10;0.10;;;;;;;18.56;49.09;102699.22;5054419;28;20091;-68
2023/04/09 01:13:38;;;;;;;0.20;0.20;;;;;;;18.78;48.46;102695.72;5034057;28;20080;-66
2023/04/09 01:16:05;;;;;;;0.22;0.22;;;;;;;18.36;49.54;102700.31;5053458;28;20493;-69
2023/04/09 01:18:43;;;;;;;0.20;0.20;;;;;;;18.59;48.91;102696.03;5052451;28;20131;-68
2023/04/09 01:21:16;;;;;;;0.40;0.40;;;;;;;18.52;49.65;102698.84;5052814;28;20505;-69
2023/04/09 01:24:19;;;;;;;0.30;0.30;;;;;;;18.50;49.55;102694.69;5052519;28;20124;-67
2023/04/09 01:27:01;;;;;;;0.20;0.20;;;;;;;18.10;50.41;102699.88;5052909;28;20134;-68
2023/04/09 01:29:30;;;;;;;0.22;0.22;;;;;;;17.92;51.28;102695.28;5052880;28;20040;-68
2023/04/09 01:31:58;;;;;;;0.17;0.17;;;;;;;18.26;49.64;102696.47;5052861;28;20503;-67
2023/04/09 01:34:25;;;;;;;0.20;0.20;;;;;;;18.40;49.81;102697.94;5045847;28;20536;-67
2023/04/09 01:36:57;;;;;;;0.30;0.30;;;;;;;18.54;49.59;102687.72;5033451;28;20441;-67
2023/04/09 01:39:23;;;;;;;0.30;0.30;;;;;;;18.46;48.96;102688.88;5046360;28;20433;-67
2023/04/09 01:41:49;;;;;;;0.25;0.25;;;;;;;18.57;48.90;102681.81;5053296;28;20045;-67
2023/04/09 01:44:15;;;;;;;0.30;0.30;;;;;;;18.28;49.65;102683.47;5055709;28;20033;-68
2023/04/09 01:46:41;;;;;;;0.20;0.20;;;;;;;18.48;48.78;102680.47;5055237;28;20104;-67
2023/04/09 01:49:08;;;;;;;0.20;0.20;;;;;;;18.54;48.85;102676.84;5055319;28;20106;-67
2023/04/09 01:51:34;;;;;;;0.20;0.20;;;;;;;18.40;49.09;102682.47;5054565;28;20037;-67
2023/04/09 01:54:00;;;;;;;0.20;0.20;;;;;;;18.41;49.30;102683.28;5054648;28;20151;-67
2023/04/09 01:56:26;;;;;;;0.20;0.20;;;;;;;18.33;49.52;102681.75;5054287;28;20095;-67
2023/04/09 01:58:51;;;;;;;0.20;0.20;;;;;;;18.39;49.28;102679.97;5053907;28;20423;-67
2023/04/09 02:01:31;;;;;;;0.10;0.10;;;;;;;18.42;49.84;102676.78;5053732;28;20032;-67
2023/04/09 02:04:03;;;;;;;0.20;0.20;;;;;;;18.70;48.94;102677.00;5053177;28;20060;-67
2023/04/09 02:06:43;;;;;;;0.20;0.20;;;;;;;17.90;51.58;102678.38;5051435;28;20098;-67
2023/04/09 02:09:08;;;;;;;0.20;0.20;;;;;;;18.22;50.01;102681.69;5052014;28;20404;-67
2023/04/09 02:11:36;;;;;;;0.20;0.20;;;;;;;18.05;50.79;102678.78;5052125;28;20033;-68
2023/04/09 02:14:07;;;;;;;0.20;0.20;;;;;;;18.32;49.98;102679.22;5052065;28;20041;-68
2023/04/09 02:16:33;;;;;;;0.32;0.32;;;;;;;17.78;51.10;102672.03;5012971;28;1127421;-68
2023/04/09 02:19:01;;;;;;;0.22;0.22;;;;;;;17.38;51.80;102670.78;5052755;28;20037;-67
2023/04/09 02:21:27;;;;;;;0.20;0.20;;;;;;;17.69;52.11;102670.66;5052784;28;20041;-68
2023/04/09 02:23:54;;;;;;;0.30;0.30;;;;;;;17.96;50.97;102671.16;5053057;28;20039;-68
2023/04/09 02:26:20;;;;;;;0.20;0.20;;;;;;;18.01;50.97;102671.28;5052634;28;20106;-69
2023/04/09 02:28:45;;;;;;;0.20;0.20;;;;;;;17.90;50.83;102659.31;5052394;28;20472;-68
2023/04/09 02:31:11;;;;;;;0.13;0.13;;;;;;;17.59;52.07;102661.38;5052634;28;20453;-67
2023/04/09 02:33:36;;;;;;;0.15;0.15;;;;;;;17.84;51.39;102665.69;5051822;28;20033;-67
2023/04/09 02:36:01;;;;;;;0.40;0.40;;;;;;;17.68;51.69;102665.44;5052089;28;20128;-68
2023/04/09 02:38:27;;;;;;;0.25;0.25;;;;;;;17.97;50.96;102662.78;5052259;28;20031;-67
2023/04/09 02:40:52;;;;;;;0.20;0.20;;;;;;;18.11;50.67;102666.97;5052332;28;20389;-67
2023/04/09 02:43:17;;;;;;;0.20;0.20;;;;;;;17.93;51.51;102658.84;5052234;28;20021;-67
2023/04/09 02:45:43;;;;;;;0.17;0.17;;;;;;;17.35;53.18;102655.78;5051796;28;20122;-67
2023/04/09 02:48:08;;;;;;;0.17;0.17;;;;;;;17.84;51.69;102652.06;5051998;28;20078;-67
2023/04/09 02:50:34;;;;;;;0.30;0.30;;;;;;;18.15;50.41;102653.72;5051728;28;20055;-67
2023/04/09 02:52:59;;;;;;;0.30;0.30;;;;;;;17.58;52.15;102652.41;5052292;28;20536;-68
2023/04/09 02:55:24;;;;;;;0.20;0.20;;;;;;;17.93;50.96;102647.97;5052389;28;20029;-68
2023/04/09 02:57:50;;;;;;;0.40;0.40;;;;;;;17.47;52.46;102651.22;5051871;28;20033;-69
2023/04/09 03:00:15;;;;;;;0.20;0.20;;;;;;;17.35;53.06;102653.06;5051728;28;20035;-67
2023/04/09 03:02:40;;;;;;;0.32;0.28;;;;;;;17.54;51.99;102648.47;5051986;28;20576;-68
2023/04/09 03:05:06;;;;;;;0.20;0.20;;;;;;;17.60;51.56;102650.28;5051745;28;20244;-69
2023/04/09 03:07:32;;;;;;;0.30;0.30;;;;;;;18.16;50.48;102648.06;5052081;28;20025;-67
2023/04/09 03:09:57;;;;;;;0.10;0.10;;;;;;;18.01;50.75;102653.09;5051614;28;20033;-67
2023/04/09 03:12:22;;;;;;;0.40;0.40;;;;;;;17.55;51.87;102642.78;5051401;28;20121;-68
2023/04/09 03:14:48;;;;;;;0.20;0.20;;;;;;;17.83;51.40;102650.41;5051434;28;20039;-68
2023/04/09 03:17:13;;;;;;;0.20;0.20;;;;;;;17.78;51.26;102644.00;5051146;28;20067;-68
2023/04/09 03:19:38;;;;;;;0.17;0.17;;;;;;;17.68;51.72;102636.38;5051992;28;20047;-67
2023/04/09 03:22:04;;;;;;;0.20;0.20;;;;;;;17.72;51.17;102637.59;5051178;28;20062;-66
2023/04/09 03:24:31;;;;;;;0.22;0.22;;;;;;;17.59;51.94;102645.06;5051184;28;20116;-67
2023/04/09 03:26:56;;;;;;;0.30;0.30;;;;;;;17.88;51.71;102644.28;5050818;28;20033;-67
2023/04/09 03:29:22;;;;;;;0.28;0.28;;;;;;;17.90;50.87;102653.88;5050922;28;20091;-67
2023/04/09 03:31:47;;;;;;;0.15;0.15;;;;;;;17.90;50.64;102647.59;5050861;28;20111;-67
2023/04/09 03:34:12;;;;;;;0.20;0.20;;;;;;;18.21;49.94;102637.31;5051103;28;20119;-68
2023/04/09 03:36:38;;;;;;;0.20;0.20;;;;;;;17.92;51.11;102640.03;5051167;28;20041;-67
2023/04/09 03:39:03;;;;;;;0.30;0.30;;;;;;;17.45;52.76;102639.75;5050298;28;20045;-67
2023/04/09 03:41:28;;;;;;;0.20;0.20;;;;;;;17.47;51.87;102636.81;5050768;28;20049;-69
2023/04/09 03:43:54;;;;;;;0.28;0.28;;;;;;;17.83;50.72;102642.25;5050836;28;20114;-67
2023/04/09 03:46:20;;;;;;;0.20;0.20;;;;;;;17.31;52.29;102643.69;5050980;28;20469;-68
2023/04/09 03:48:45;;;;;;;0.20;0.20;;;;;;;17.65;51.58;102636.00;5050656;28;20065;-68
2023/04/09 03:51:12;;;;;;;0.20;0.20;;;;;;;17.38;51.50;102638.16;5050614;28;20489;-68
2023/04/09 03:53:37;;;;;;;0.20;0.20;;;;;;;17.45;51.44;102639.75;5050385;28;20029;-67
2023/04/09 03:56:03;;;;;;;0.20;0.20;;;;;;;17.80;50.81;102636.44;5051104;28;20029;-66
2023/04/09 03:58:28;;;;;;;0.20;0.20;;;;;;;17.45;52.11;102633.50;5051508;28;20124;-66
2023/04/09 04:00:53;;;;;;;0.20;0.20;;;;;;;17.47;50.81;102629.47;5050796;28;20141;-67
2023/04/09 04:03:19;;;;;;;0.20;0.20;;;;;;;17.63;51.50;102624.53;5035714;28;20129;-68
2023/04/09 04:05:44;;;;;;;0.20;0.20;;;;;;;17.53;51.01;102628.59;5042637;28;20124;-70
2023/04/09 04:08:10;;;;;;;0.30;0.30;;;;;;;17.19;52.48;102631.06;5050684;28;20036;-67
2023/04/09 04:10:35;;;;;;;0.20;0.20;;;;;;;17.70;50.83;102627.97;5051103;28;20108;-67
2023/04/09 04:13:01;;;;;;;0.20;0.20;;;;;;;17.78;50.49;102631.22;5032287;28;20533;-67
2023/04/09 04:15:27;;;;;;;0.15;0.15;;;;;;;17.84;49.91;102627.59;5050823;28;20025;-67
2023/04/09 04:17:52;;;;;;;0.30;0.30;;;;;;;17.91;49.68;102630.22;5050885;28;20049;-69
2023/04/09 04:20:18;;;;;;;0.30;0.30;;;;;;;17.75;49.68;102626.22;5051027;28;20107;-68
2023/04/09 04:22:43;;;;;;;0.10;0.10;;;;;;;17.83;49.96;102630.53;5051102;28;20040;-68
2023/04/09 04:25:09;;;;;;;0.13;0.13;;;;;;;18.03;49.75;102629.22;5051362;28;20108;-70
2023/04/09 04:27:34;;;;;;;0.22;0.22;;;;;;;18.19;48.85;102627.72;5050900;28;20091;-67
2023/04/09 04:30:01;;;;;;;0.20;0.20;;;;;;;17.99;49.53;102630.72;5054613;28;20051;-67
2023/04/09 04:32:26;;;;;;;0.30;0.30;;;;;;;17.36;51.23;102632.13;5055010;28;20503;-69
2023/04/09 04:34:52;;;;;;;0.22;0.22;;;;;;;17.69;50.12;102629.06;5052324;28;20032;-67
2023/04/09 04:37:17;;;;;;;0.10;0.10;;;;;;;17.74;50.02;102627.31;5055213;28;20021;-67
2023/04/09 04:39:42;;;;;;;0.20;0.20;;;;;;;18.25;48.37;102630.34;5054564;28;20128;-67
2023/04/09 04:42:08;;;;;;;0.20;0.20;;;;;;;18.38;48.35;102643.75;5054205;28;20048;-68
2023/04/09 04:44:33;;;;;;;0.10;0.10;;;;;;;18.09;48.46;102633.72;5054427;28;20029;-68
2023/04/09 04:46:59;;;;;;;0.22;0.22;;;;;;;18.38;48.01;102632.84;5054170;28;20461;-67
2023/04/09 04:49:24;;;;;;;0.30;0.30;;;;;;;18.00;49.04;102635.13;5054997;28;20373;-68
2023/04/09 04:51:49;;;;;;;0.30;0.30;;;;;;;17.96;48.95;102635.81;5054598;28;20040;-68
2023/04/09 04:54:15;;;;;;;0.20;0.20;;;;;;;18.34;48.54;102639.81;5054649;28;20037;-67
2023/04/09 04:56:40;;;;;;;0.20;0.20;;;;;;;18.03;48.62;102637.38;5036183;28;20489;-66
2023/04/09 04:59:05;;;;;;;0.20;0.20;;;;;;;17.64;49.22;102632.47;5052851;28;20060;-68
2023/04/09 05:01:31;;;;;;;0.20;0.20;;;;;;;17.50;49.82;102636.38;5054596;28;20415;-67
2023/04/09 05:03:56;;;;;;;0.25;0.25;;;;;;;17.63;49.76;102641.66;5054015;28;20501;-67
2023/04/09 05:06:22;;;;;;;0.25;0.25;;;;;;;17.81;49.29;102638.91;5053917;28;20041;-68
2023/04/09 05:08:47;;;;;;;0.20;0.20;;;;;;;17.79;49.02;102641.03;5053700;28;20379;-67
2023/04/09 05:11:14;;;;;;;0.20;0.20;;;;;;;17.78;49.31;102635.84;5053804;28;20040;-66
2023/04/09 05:13:39;;;;;;;0.20;0.20;;;;;;;18.06;48.22;102633.38;5054152;28;20029;-68
2023/04/09 05:16:05;;;;;;;0.28;0.28;;;;;;;17.74;49.20;102635.47;5053749;28;20175;-67
2023/04/09 05:18:30;;;;;;;0.10;0.10;;;;;;;18.08;48.01;102625.81;5036589;28;20037;-67
2023/04/09 05:20:56;;;;;;;0.20;0.20;;;;;;;18.14;48.12;102630.31;5033600;28;20046;-69
2023/04/09 05:23:21;;;;;;;0.13;0.13;;;;;;;17.84;48.37;102627.59;5033981;28;20041;-68
2023/04/09 05:25:49;;;;;;;0.20;0.20;;;;;;;18.11;48.76;102639.75;5033682;28;20029;-67
2023/04/09 05:28:15;;;;;;;0.20;0.20;;;;;;;18.15;48.06;102626.53;5033910;28;20033;-68
2023/04/09 05:30:45;;;;;;;0.20;0.20;;;;;;;17.93;48.79;102626.19;5033271;28;20037;-67
2023/04/09 05:33:10;;;;;;;0.20;0.20;;;;;;;17.68;48.51;102633.66;5033517;28;20121;-66
2023/04/09 05:35:38;;;;;;;0.20;0.20;;;;;;;17.98;47.78;102629.09;5016573;28;20034;-67
2023/04/09 05:38:03;;;;;;;0.20;0.20;;;;;;;17.33;48.86;102635.31;5014033;28;20033;-68
2023/04/09 05:40:29;;;;;;;0.13;0.13;;;;;;;17.66;48.41;102626.78;5014196;28;20030;-69
2023/04/09 05:42:54;;;;;;;0.20;0.20;;;;;;;17.84;47.21;102624.88;5013457;28;20107;-70
2023/04/09 05:45:19;;;;;;;0.20;0.20;;;;;;;18.22;46.74;102630.00;5013752;28;20097;-67
2023/04/09 05:47:45;;;;;;;0.20;0.20;;;;;;;18.47;46.02;102621.66;5013757;28;20038;-68
2023/04/09 05:50:10;;;;;;;0.20;0.20;;;;;;;18.48;45.91;102626.88;5013688;28;20084;-67
2023/04/09 05:52:36;;;;;;;0.20;0.20;;;;;;;18.28;46.27;102623.59;5014391;28;20512;-67
2023/04/09 05:55:01;;;;;;;0.17;0.17;;;;;;;18.44;45.43;102628.41;5013461;28;20044;-68
2023/04/09 05:57:29;;;;;;;0.20;0.20;;;;;;;18.03;46.93;102628.38;5012002;28;20034;-67
2023/04/09 05:59:55;;;;;;;0.20;0.20;;;;;;;18.23;46.20;102632.47;5013162;28;20429;-71
2023/04/09 06:02:20;;;;;;;0.20;0.20;;;;;;;18.26;45.76;102629.28;5013343;28;20034;-68
2023/04/09 06:04:45;;;;;;;0.20;0.20;;;;;;;18.45;44.85;102634.69;5013032;28;20041;-68
2023/04/09 06:07:11;;;;;;;0.20;0.20;;;;;;;18.40;45.24;102636.19;5015919;28;20033;-69
2023/04/09 06:09:37;;;;;;;0.30;0.30;;;;;;;18.12;45.51;102635.97;5033197;28;20025;-69
2023/04/09 06:12:02;;;;;;;0.10;0.10;;;;;;;18.06;45.89;102647.78;5033129;28;20029;-69
2023/04/09 06:14:28;;;;;;;0.28;0.28;;;;;;;17.34;47.18;102640.50;5026506;28;20442;-69
2023/04/09 06:16:53;;;;;;;0.30;0.30;;;;;;;18.50;45.41;102649.25;5016332;28;20210;-68
2023/04/09 06:19:19;;;;;;;0.20;0.20;;;;;;;18.02;46.15;102637.59;5033486;28;20032;-68
2023/04/09 06:21:44;;;;;;;0.20;0.20;;;;;;;17.88;45.92;102638.84;5032770;28;20432;-68
2023/04/09 06:24:10;;;;;;;0.30;0.30;;;;;;;18.01;45.77;102641.38;5032855;28;20029;-68
2023/04/09 06:26:35;;;;;;;0.20;0.20;;;;;;;18.12;45.80;102638.69;5034959;28;20037;-69
2023/04/09 06:29:01;;;;;;;0.20;0.20;;;;;;;18.50;45.26;102635.63;5014512;28;20025;-67
2023/04/09 06:31:27;;;;;;;0.20;0.20;;;;;;;18.84;43.71;102628.56;5033094;28;20465;-69
2023/04/09 06:33:52;;;;;;;0.20;0.20;;;;;;;18.67;44.45;102633.88;5027283;28;20030;-68
2023/04/09 06:36:17;;;;;;;0.20;0.20;;;;;;;18.76;43.74;102637.09;5032531;28;20386;-66
2023/04/09 06:38:43;;;;;;;0.20;0.20;;;;;;;18.42;44.38;102628.63;5032229;28;20030;-66
2023/04/09 06:41:10;;;;;;;0.20;0.20;;;;;;;19.04;43.07;102629.88;5032422;28;20030;-67
2023/04/09 06:43:36;;;;;;;0.20;0.20;;;;;;;18.81;43.00;102642.69;5032920;28;20032;-70
2023/04/09 06:46:01;;;;;;;0.20;0.20;;;;;;;18.92;43.34;102642.69;5032415;28;20026;-67
2023/04/09 06:48:27;;;;;;;0.20;0.20;;;;;;;19.04;42.94;102639.94;5031230;28;20029;-67
2023/04/09 06:50:52;;;;;;;0.20;0.20;;;;;;;18.89;43.07;102647.75;5032280;28;20048;-69
2023/04/09 06:53:17;;;;;;;0.20;0.20;;;;;;;18.92;43.24;102648.13;5032532;28;20445;-67
2023/04/09 06:55:43;;;;;;;0.20;0.20;;;;;;;19.28;42.12;102647.06;5032615;28;20021;-68
2023/04/09 06:58:08;;;;;;;0.20;0.20;;;;;;;19.11;42.73;102652.38;5034645;28;20465;-67
2023/04/09 07:00:34;;;;;;;0.20;0.20;;;;;;;19.39;42.17;102653.56;5032241;28;20470;-66
2023/04/09 07:02:59;;;;;;;0.20;0.20;;;;;;;19.15;41.97;102642.66;5032319;28;20038;-68
2023/04/09 07:05:25;;;;;;;0.25;0.25;;;;;;;18.91;42.36;102654.63;5034480;28;20408;-69
2023/04/09 07:07:50;;;;;;;0.10;0.10;;;;;;;18.76;42.83;102648.81;5041986;28;20539;-67
2023/04/09 07:10:16;;;;;;;0.17;0.17;;;;;;;19.37;41.88;102650.25;5053770;28;20027;-66
2023/04/09 07:12:41;;;;;;;0.17;0.17;;;;;;;19.29;42.12;102645.97;5052255;28;20031;-68
2023/04/09 07:15:07;;;;;;;0.30;0.30;;;;;;;19.58;42.05;102647.72;5034147;28;20033;-68
2023/04/09 07:17:33;;;;;;;0.20;0.20;;;;;;;19.46;42.13;102652.38;5031550;28;20132;-68
2023/04/09 07:19:59;;;;;;;0.10;0.10;;;;;;;19.16;42.03;102649.75;5051786;28;20036;-67
2023/04/09 07:22:29;;;;;;;0.13;0.13;;;;;;;19.61;41.69;102658.16;5051890;28;20013;-69
2023/04/09 07:24:54;;;;;;;0.10;0.10;;;;;;;19.81;41.96;102655.03;5048854;28;20036;-68
2023/04/09 07:27:24;;;;;;;0.20;0.20;;;;;;;18.90;43.17;102654.88;5051414;28;20037;-69
2023/04/09 07:29:50;;;;;;;0.20;0.20;;;;;;;18.87;44.07;102658.09;5051335;28;20029;-68
2023/04/09 07:32:16;;;;;;;0.20;0.20;;;;;;;18.67;45.42;102660.31;5051491;28;20106;-66
2023/04/09 07:34:44;;;;;;;0.30;0.30;;;;;;;19.05;44.46;102666.13;5042289;28;20030;-68
2023/04/09 07:37:10;;;;;;;0.10;0.10;;;;;;;19.38;43.33;102660.09;5032126;28;20056;-68
2023/04/09 07:39:35;;;;;;;0.20;0.20;;;;;;;19.72;42.50;102661.91;5031601;28;20042;-68
2023/04/09 07:42:04;;;;;;;0.10;0.10;;;;;;;19.41;44.24;102663.19;5031403;28;20041;-68
2023/04/09 07:44:35;;;;;;;0.20;0.20;;;;;;;19.77;43.82;102662.03;5031623;28;20068;-68
2023/04/09 07:47:01;;;;;;;0.20;0.20;;;;;;;18.97;44.11;102664.59;5033577;28;20540;-69
2023/04/09 07:49:26;;;;;;;0.20;0.20;;;;;;;19.09;43.61;102659.13;5051014;28;20492;-68
2023/04/09 07:51:52;;;;;;;0.10;0.10;;;;;;;19.01;42.97;102654.88;5050990;28;20025;-69
2023/04/09 07:54:19;;;;;;;0.20;0.20;;;;;;;19.38;42.79;102655.47;5050818;28;20033;-68
2023/04/09 07:56:45;;;;;;;0.20;0.20;;;;;;;18.62;44.12;102661.00;5050425;28;20375;-67
2023/04/09 07:59:10;;;;;;;0.10;0.10;;;;;;;18.72;44.10;102653.09;5050029;28;20067;-68
2023/04/09 08:01:36;;;;;;;0.20;0.20;;;;;;;19.21;43.18;102654.50;5050648;28;20353;-68
2023/04/09 08:04:01;;;;;;;0.20;0.20;;;;;;;18.20;43.89;102662.06;5051884;28;20037;-67
2023/04/09 08:06:27;;;;;;;0.15;0.15;;;;;;;18.99;43.08;102654.28;5053849;28;20035;-69
2023/04/09 08:08:52;;;;;;;0.10;0.10;;;;;;;18.79;44.47;102655.69;5036460;28;20033;-68
2023/04/09 08:11:23;;;;;;;0.20;0.20;;;;;;;19.83;41.84;102659.16;5053623;28;20064;-68
2023/04/09 08:13:52;;;;;;;0.20;0.20;;;;;;;18.89;43.57;102664.09;5050933;28;20036;-67
2023/04/09 08:16:18;;;;;;;0.10;0.10;;;;;;;19.20;43.67;102664.56;5053947;28;20036;-67
2023/04/09 08:18:43;;;;;;;0.20;0.20;;;;;;;19.31;43.07;102668.38;5052899;28;20476;-66
2023/04/09 08:21:09;;;;;;;0.20;0.20;;;;;;;19.29;43.12;102671.34;5049347;28;20045;-68
2023/04/09 08:23:35;;;;;;;0.20;0.20;;;;;;;19.22;42.95;102667.88;5052621;28;20040;-68
2023/04/09 08:26:00;;;;;;;0.20;0.20;;;;;;;18.96;43.91;102660.22;5052372;28;20067;-67
2023/04/09 08:28:25;;;;;;;0.20;0.20;;;;;;;19.90;42.33;102661.75;5052941;28;20017;-66
2023/04/09 08:30:51;;;;;;;0.10;0.10;;;;;;;20.21;41.16;102660.44;5052264;28;20033;-68
2023/04/09 08:33:16;;;;;;;0.20;0.20;;;;;;;20.00;41.52;102654.59;5052275;28;20064;-67
2023/04/09 08:35:42;;;;;;;0.20;0.20;;;;;;;19.08;43.23;102649.31;5052098;28;20021;-67
2023/04/09 08:38:07;;;;;;;0.20;0.20;;;;;;;20.15;40.88;102649.41;5052475;28;20025;-67
2023/04/09 08:40:34;;;;;;;0.20;0.20;;;;;;;20.12;41.46;102652.66;5053026;28;20022;-66
2023/04/09 08:43:04;;;;;;;0.20;0.20;;;;;;;19.94;41.56;102660.19;5052213;28;20025;-67
2023/04/09 08:45:30;;;;;;;0.10;0.10;;;;;;;19.83;40.77;102658.34;5031303;28;20044;-67
2023/04/09 08:47:58;;;;;;;0.20;0.20;;;;;;;20.08;41.26;102658.84;5052031;28;20033;-66
2023/04/09 08:50:26;;;;;;;0.20;0.20;;;;;;;19.58;42.21;102658.63;5052063;28;20226;-68
2023/04/09 08:52:52;;;;;;;0.20;0.20;;;;;;;19.28;42.65;102658.75;5049971;28;20104;-66
2023/04/09 08:55:17;;;;;;;0.20;0.20;;;;;;;20.16;41.20;102661.16;5052704;28;20025;-68
2023/04/09 08:57:43;;;;;;;0.20;0.20;;;;;;;20.23;41.72;102656.41;5051795;28;20404;-68
2023/04/09 09:00:09;;;;;;;0.20;0.20;;;;;;;20.33;41.50;102653.88;5048461;28;20029;-67
2023/04/09 09:02:34;;;;;;;0.20;0.20;;;;;;;20.39;40.98;102650.16;5052705;28;20089;-71
2023/04/09 09:05:00;;;;;;;0.20;0.20;;;;;;;20.82;39.39;102650.34;5035212;28;20120;-66
2023/04/09 09:07:29;;;;;;;0.20;0.20;;;;;;;21.31;39.16;102637.69;5053275;28;20098;-67
2023/04/09 09:09:56;;;;;;;0.20;0.20;;;;;;;21.28;39.36;102640.94;5052882;28;20090;-66
2023/04/09 09:12:30;;;;;;;0.20;0.20;;;;;;;20.96;38.08;102640.72;5052947;28;20055;-67
2023/04/09 09:14:56;;;;;;;0.20;0.20;;;;;;;20.58;37.91;102634.38;5052197;28;20056;-67
2023/04/09 09:17:21;;;;;;;0.10;0.10;;;;;;;21.51;38.08;102637.13;5052491;28;20501;-66
2023/04/09 09:19:46;;;;;;;0.10;0.10;;;;;;;21.11;38.57;102642.88;5052975;28;20021;-69
2023/04/09 09:22:12;;;;;;;0.20;0.20;;;;;;;20.47;39.49;102638.00;5053551;28;20032;-66
2023/04/09 09:24:47;;;;;;;0.20;0.20;;;;;;;20.93;39.27;102638.47;5034447;28;20439;-68
2023/04/09 09:27:32;;;;;;;0.20;0.20;;;;;;;21.09;38.01;102628.63;5052649;28;20504;-66
2023/04/09 09:29:57;;;;;;;0.10;0.10;;;;;;;21.58;37.72;102624.91;5052460;28;20037;-68
2023/04/09 09:32:23;;;;;;;0.20;0.20;;;;;;;21.05;39.05;102627.47;5034229;28;20566;-67
2023/04/09 09:35:01;;;;;;;0.20;0.20;;;;;;;21.70;38.49;102622.88;5030712;28;20052;-66
2023/04/09 09:37:28;;;;;;;0.20;0.20;;;;;;;21.17;38.11;102622.72;5033187;28;20021;-65
2023/04/09 09:39:54;;;;;;;0.20;0.20;;;;;;;21.32;37.91;102619.38;5032473;28;20053;-67
2023/04/09 09:42:20;;;;;;;0.20;0.20;;;;;;;21.40;36.95;102611.56;5014574;28;20033;-67
2023/04/09 09:44:46;;;;;;;0.20;0.20;;;;;;;21.74;36.63;102618.53;5032131;28;20040;-67
2023/04/09 09:47:14;;;;;;;0.10;0.10;;;;;;;21.87;35.86;102616.53;5032470;28;20200;-68
2023/04/09 09:49:40;;;;;;;0.20;0.20;;;;;;;20.99;35.91;102617.53;5032970;28;20025;-67
2023/04/09 09:52:09;;;;;;;0.10;0.10;;;;;;;21.43;36.04;102611.06;5032163;28;20079;-69
2023/04/09 09:54:42;;;;;;;0.17;0.17;;;;;;;22.07;35.78;102617.56;5032026;28;20040;-67
2023/04/09 09:57:12;;;;;;;0.20;0.20;;;;;;;21.39;35.60;102609.91;5044133;28;20033;-71
2023/04/09 09:59:42;;;;;;;0.10;0.10;;;;;;;21.65;36.61;102608.31;5052127;28;20037;-67
2023/04/09 10:02:18;;;;;;;0.10;0.10;;;;;;;21.76;35.97;102616.38;5048719;28;20564;-67
2023/04/09 10:04:44;;;;;;;0.20;0.20;;;;;;;22.25;35.22;102616.38;5049449;28;20031;-68
2023/04/09 10:07:10;;;;;;;0.20;0.20;;;;;;;20.79;35.36;102607.13;5050639;28;20029;-69
2023/04/09 10:09:40;;;;;;;0.20;0.20;;;;;;;21.28;35.71;102602.66;5049868;28;20025;-67
2023/04/09 10:12:08;;;;;;;0.10;0.10;;;;;;;21.95;35.02;102607.84;5032091;28;20083;-68
2023/04/09 10:14:34;;;;;;;0.10;0.10;;;;;;;22.01;34.74;102604.09;5050404;28;20261;-67
2023/04/09 10:17:02;;;;;;;0.10;0.10;;;;;;;22.09;34.42;102607.19;5048540;28;20108;-67
2023/04/09 10:19:29;;;;;;;0.10;0.10;;;;;;;21.63;34.28;102597.63;5052246;28;20095;-66
2023/04/09 10:22:04;;;;;;;0.10;0.10;;;;;;;22.34;33.69;102591.00;5050884;28;20410;-67
2023/04/09 10:24:32;;;;;;;0.20;0.20;;;;;;;22.92;32.46;102584.56;5050047;28;20044;-67
2023/04/09 10:27:11;;;;;;;0.10;0.10;;;;;;;22.42;34.27;102589.69;5049406;28;20025;-66
2023/04/09 10:29:45;;;;;;;0.10;0.10;;;;;;;22.42;34.42;102584.19;5048114;28;20115;-66
2023/04/09 10:32:12;;;;;;;0.10;0.10;;;;;;;21.91;33.44;102576.59;5050083;28;20093;-70
2023/04/09 10:34:39;;;;;;;0.10;0.10;;;;;;;21.84;33.13;102577.63;5050902;28;20052;-67
2023/04/09 10:37:08;;;;;;;0.10;0.10;;;;;;;22.46;34.40;102579.84;5050098;28;20025;-68
2023/04/09 10:39:38;;;;;;;0.10;0.10;;;;;;;22.44;34.21;102576.53;5047340;28;20037;-68
2023/04/09 10:42:10;;;;;;;0.10;0.10;;;;;;;23.07;32.63;102573.72;5032083;28;20532;-67
2023/04/09 10:44:40;;;;;;;0.10;0.10;;;;;;;22.96;33.57;102577.47;5030335;28;20025;-68
2023/04/09 10:47:07;;;;;;;0.15;0.15;;;;;;;22.37;33.47;102564.97;5050743;28;20431;-69
2023/04/09 10:49:37;;;;;;;0.15;0.15;;;;;;;22.84;33.23;102560.41;5063529;28;20033;-67
2023/04/09 10:52:05;;;;;;;0.10;0.10;;;;;;;22.65;32.62;102562.75;5054514;28;20032;-66
2023/04/09 10:54:33;;;;;;;0.17;0.17;;;;;;;22.54;34.04;102560.97;5067169;28;20393;-67
2023/04/09 10:57:08;;;;;;;0.10;0.10;;;;;;;23.42;33.30;102567.56;5050833;28;20159;-69
2023/04/09 10:59:35;;;;;;;0.13;0.13;;;;;;;22.59;32.46;102561.06;5063721;28;20117;-70
2023/04/09 11:02:00;;;;;;;0.10;0.10;;;;;;;22.58;32.19;102562.13;5070986;28;20035;-68
2023/04/09 11:04:47;;;;;;;0.10;0.10;;;;;;;22.50;32.35;102561.78;5054901;28;20067;-65
2023/04/09 11:07:14;;;;;;;0.20;0.20;;;;;;;23.61;31.96;102557.75;5038270;28;20053;-67
2023/04/09 11:09:40;;;;;;;0.10;0.10;;;;;;;23.76;30.80;102555.06;5038372;28;20048;-67
2023/04/09 11:12:06;;;;;;;0.15;0.15;;;;;;;23.36;31.09;102547.53;5048127;28;20029;-66
2023/04/09 11:14:32;;;;;;;0.10;0.10;;;;;;;23.22;31.78;102548.25;5046416;28;20032;-67
2023/04/09 11:16:58;;;;;;;0.10;0.10;;;;;;;23.16;31.78;102543.84;5060472;28;20065;-68
2023/04/09 11:19:23;;;;;;;0.10;0.10;;;;;;;23.68;31.75;102533.63;5056205;28;20080;-67
2023/04/09 11:21:49;;;;;;;0.10;0.10;;;;;;;23.68;30.96;102536.38;5055015;28;20040;-67
2023/04/09 11:24:14;;;;;;;0.10;0.10;;;;;;;23.71;30.55;102529.50;5051072;28;20624;-67